sensor_id;sensor_type;location;lat;lon;timestamp;pressure;altitude;pressure_sealevel;temperature;humidity
73981;BME280;62348;51.412;5.436;2023-07-31T00:01:10;100950.47;;;15.95;100.00
73981;BME280;62348;51.412;5.436;2023-07-31T00:03:35;100945.28;;;15.93;100.00
73981;BME280;62348;51.412;5.436;2023-07-31T00:06:01;100953.78;;;15.92;100.00
73981;BME280;62348;51.412;5.436;2023-07-31T00:08:26;100951.59;;;15.94;100.00
73981;BME280;62348;51.412;5.436;2023-07-31T00:10:52;100945.91;;;15.90;100.00
73981;BME280;62348;51.412;5.436;2023-07-31T00:13:18;100950.00;;;15.88;100.00
73981;BME280;62348;51.412;5.436;2023-07-31T00:15:44;100954.16;;;15.85;100.00
73981;BME280;62348;51.412;5.436;2023-07-31T00:18:09;100954.66;;;15.87;100.00
73981;BME280;62348;51.412;5.436;2023-07-31T00:20:34;100953.06;;;15.86;100.00
73981;BME280;62348;51.412;5.436;2023-07-31T00:23:00;100945.97;;;15.85;100.00
73981;BME280;62348;51.412;5.436;2023-07-31T00:25:25;100951.66;;;15.89;100.00
73981;BME280;62348;51.412;5.436;2023-07-31T00:27:50;100944.03;;;15.86;100.00
73981;BME280;62348;51.412;5.436;2023-07-31T00:30:16;100945.16;;;15.85;100.00
73981;BME280;62348;51.412;5.436;2023-07-31T00:32:41;100932.84;;;15.87;100.00
73981;BME280;62348;51.412;5.436;2023-07-31T00:35:07;100932.84;;;15.87;100.00
73981;BME280;62348;51.412;5.436;2023-07-31T00:37:32;100940.50;;;15.85;100.00
73981;BME280;62348;51.412;5.436;2023-07-31T00:39:58;100939.09;;;15.88;100.00
73981;BME280;62348;51.412;5.436;2023-07-31T00:42:24;100926.59;;;15.87;100.00
73981;BME280;62348;51.412;5.436;2023-07-31T00:44:50;100933.47;;;15.84;100.00
73981;BME280;62348;51.412;5.436;2023-07-31T00:47:15;100943.53;;;15.84;100.00
73981;BME280;62348;51.412;5.436;2023-07-31T00:49:41;100941.63;;;15.84;100.00
73981;BME280;62348;51.412;5.436;2023-07-31T00:52:07;100930.72;;;15.84;100.00
73981;BME280;62348;51.412;5.436;2023-07-31T00:54:33;100925.56;;;15.83;100.00
73981;BME280;62348;51.412;5.436;2023-07-31T00:56:59;100930.19;;;15.82;100.00
73981;BME280;62348;51.412;5.436;2023-07-31T00:59:25;100927.47;;;15.82;100.00
73981;BME280;62348;51.412;5.436;2023-07-31T01:01:50;100925.06;;;15.80;100.00
73981;BME280;62348;51.412;5.436;2023-07-31T01:04:17;100922.63;;;15.79;100.00
73981;BME280;62348;51.412;5.436;2023-07-31T01:06:56;100926.94;;;15.80;100.00
73981;BME280;62348;51.412;5.436;2023-07-31T01:09:37;100920.19;;;15.77;100.00
73981;BME280;62348;51.412;5.436;2023-07-31T01:12:06;100921.28;;;15.76;100.00
73981;BME280;62348;51.412;5.436;2023-07-31T01:14:32;100923.47;;;15.74;100.00
73981;BME280;62348;51.412;5.436;2023-07-31T01:16:57;100927.03;;;15.75;100.00
73981;BME280;62348;51.412;5.436;2023-07-31T01:19:24;100915.59;;;15.73;100.00
73981;BME280;62348;51.412;5.436;2023-07-31T01:24:40;100922.13;;;15.72;100.00
73981;BME280;62348;51.412;5.436;2023-07-31T01:27:15;100926.53;;;15.68;100.00
73981;BME280;62348;51.412;5.436;2023-07-31T01:32:28;100921.66;;;15.65;100.00
73981;BME280;62348;51.412;5.436;2023-07-31T01:34:54;100918.44;;;15.62;100.00
73981;BME280;62348;51.412;5.436;2023-07-31T01:37:20;100930.13;;;15.63;100.00
73981;BME280;62348;51.412;5.436;2023-07-31T01:39:45;100918.44;;;15.62;100.00
73981;BME280;62348;51.412;5.436;2023-07-31T01:42:10;100919.84;;;15.60;100.00
73981;BME280;62348;51.412;5.436;2023-07-31T01:44:36;100917.13;;;15.60;100.00
73981;BME280;62348;51.412;5.436;2023-07-31T01:47:01;100911.94;;;15.58;100.00
73981;BME280;62348;51.412;5.436;2023-07-31T01:49:27;100917.69;;;15.57;100.00
73981;BME280;62348;51.412;5.436;2023-07-31T01:51:52;100914.97;;;15.57;100.00
73981;BME280;62348;51.412;5.436;2023-07-31T01:54:17;100912.00;;;15.53;100.00
73981;BME280;62348;51.412;5.436;2023-07-31T01:56:43;100906.88;;;15.52;100.00
73981;BME280;62348;51.412;5.436;2023-07-31T01:59:08;100912.84;;;15.54;100.00
73981;BME280;62348;51.412;5.436;2023-07-31T02:01:33;100902.50;;;15.51;100.00
73981;BME280;62348;51.412;5.436;2023-07-31T02:03:59;100900.06;;;15.49;100.00
73981;BME280;62348;51.412;5.436;2023-07-31T02:06:24;100898.75;;;15.47;100.00
73981;BME280;62348;51.412;5.436;2023-07-31T02:08:50;100887.56;;;15.48;100.00
73981;BME280;62348;51.412;5.436;2023-07-31T02:11:15;100889.47;;;15.48;100.00
73981;BME280;62348;51.412;5.436;2023-07-31T02:13:40;100884.31;;;15.46;100.00
73981;BME280;62348;51.412;5.436;2023-07-31T02:16:06;100877.53;;;15.43;100.00
73981;BME280;62348;51.412;5.436;2023-07-31T02:18:31;100876.44;;;15.45;100.00
73981;BME280;62348;51.412;5.436;2023-07-31T02:20:56;100871.00;;;15.45;100.00
73981;BME280;62348;51.412;5.436;2023-07-31T02:23:22;100871.00;;;15.45;100.00
73981;BME280;62348;51.412;5.436;2023-07-31T02:25:47;100862.81;;;15.45;100.00
73981;BME280;62348;51.412;5.436;2023-07-31T02:28:13;100867.16;;;15.46;100.00
73981;BME280;62348;51.412;5.436;2023-07-31T02:30:38;100868.28;;;15.45;100.00
73981;BME280;62348;51.412;5.436;2023-07-31T02:33:04;100870.75;;;15.41;100.00
73981;BME280;62348;51.412;5.436;2023-07-31T02:35:30;100849.78;;;15.41;100.00
73981;BME280;62348;51.412;5.436;2023-07-31T02:37:55;100849.78;;;15.41;100.00
73981;BME280;62348;51.412;5.436;2023-07-31T02:40:21;100855.22;;;15.41;100.00
73981;BME280;62348;51.412;5.436;2023-07-31T02:42:46;100848.16;;;15.40;100.00
73981;BME280;62348;51.412;5.436;2023-07-31T02:45:12;100845.97;;;15.42;100.00
73981;BME280;62348;51.412;5.436;2023-07-31T02:47:37;100850.06;;;15.40;100.00
73981;BME280;62348;51.412;5.436;2023-07-31T02:50:03;100851.41;;;15.42;100.00
73981;BME280;62348;51.412;5.436;2023-07-31T02:52:28;100847.34;;;15.40;100.00
73981;BME280;62348;51.412;5.436;2023-07-31T02:54:54;100847.03;;;15.41;100.00
73981;BME280;62348;51.412;5.436;2023-07-31T02:57:19;100843.53;;;15.41;100.00
73981;BME280;62348;51.412;5.436;2023-07-31T02:59:44;100840.50;;;15.42;100.00
73981;BME280;62348;51.412;5.436;2023-07-31T03:02:10;100839.69;;;15.42;100.00
73981;BME280;62348;51.412;5.436;2023-07-31T03:04:36;100837.78;;;15.42;100.00
73981;BME280;62348;51.412;5.436;2023-07-31T03:07:02;100844.03;;;15.43;100.00
73981;BME280;62348;51.412;5.436;2023-07-31T03:09:27;100838.59;;;15.43;100.00
73981;BME280;62348;51.412;5.436;2023-07-31T03:11:52;100834.22;;;15.42;100.00
73981;BME280;62348;51.412;5.436;2023-07-31T03:14:18;100840.50;;;15.42;100.00
73981;BME280;62348;51.412;5.436;2023-07-31T03:16:43;100844.56;;;15.45;100.00
73981;BME280;62348;51.412;5.436;2023-07-31T03:19:08;100839.91;;;15.46;100.00
73981;BME280;62348;51.412;5.436;2023-07-31T03:21:34;100842.34;;;15.47;100.00
73981;BME280;62348;51.412;5.436;2023-07-31T03:23:59;100844.25;;;15.47;100.00
73981;BME280;62348;51.412;5.436;2023-07-31T03:26:24;100839.91;;;15.46;100.00
73981;BME280;62348;51.412;5.436;2023-07-31T03:28:50;100840.75;;;15.46;100.00
73981;BME280;62348;51.412;5.436;2023-07-31T03:31:15;100834.16;;;15.47;100.00
73981;BME280;62348;51.412;5.436;2023-07-31T03:33:41;100829.84;;;15.46;100.00
73981;BME280;62348;51.412;5.436;2023-07-31T03:36:06;100823.78;;;15.49;100.00
73981;BME280;62348;51.412;5.436;2023-07-31T03:38:33;100827.63;;;15.48;100.00
73981;BME280;62348;51.412;5.436;2023-07-31T03:40:59;100823.50;;;15.51;100.00
73981;BME280;62348;51.412;5.436;2023-07-31T03:43:24;100815.81;;;15.53;100.00
73981;BME280;62348;51.412;5.436;2023-07-31T03:45:50;100809.28;;;15.54;100.00
73981;BME280;62348;51.412;5.436;2023-07-31T03:48:16;100810.09;;;15.54;100.00
73981;BME280;62348;51.412;5.436;2023-07-31T03:50:41;100813.63;;;15.55;100.00
73981;BME280;62348;51.412;5.436;2023-07-31T03:53:07;100804.63;;;15.54;100.00
73981;BME280;62348;51.412;5.436;2023-07-31T03:55:32;100807.88;;;15.56;100.00
73981;BME280;62348;51.412;5.436;2023-07-31T03:57:58;100806.75;;;15.57;100.00
73981;BME280;62348;51.412;5.436;2023-07-31T04:00:23;100794.75;;;15.58;100.00
73981;BME280;62348;51.412;5.436;2023-07-31T04:02:48;100806.47;;;15.59;100.00
73981;BME280;62348;51.412;5.436;2023-07-31T04:05:14;100793.34;;;15.61;100.00
73981;BME280;62348;51.412;5.436;2023-07-31T04:07:39;100788.41;;;15.63;100.00
73981;BME280;62348;51.412;5.436;2023-07-31T04:10:05;100786.53;;;15.64;100.00
73981;BME280;62348;51.412;5.436;2023-07-31T04:12:30;100781.88;;;15.64;100.00
73981;BME280;62348;51.412;5.436;2023-07-31T04:14:56;100777.22;;;15.65;100.00
73981;BME280;62348;51.412;5.436;2023-07-31T04:17:21;100769.88;;;15.65;100.00
73981;BME280;62348;51.412;5.436;2023-07-31T04:19:47;100770.38;;;15.67;100.00
73981;BME280;62348;51.412;5.436;2023-07-31T04:22:12;100769.56;;;15.67;100.00
73981;BME280;62348;51.412;5.436;2023-07-31T04:24:37;100767.34;;;15.69;100.00
73981;BME280;62348;51.412;5.436;2023-07-31T04:27:03;100769.78;;;15.70;100.00
73981;BME280;62348;51.412;5.436;2023-07-31T04:29:28;100768.69;;;15.71;100.00
73981;BME280;62348;51.412;5.436;2023-07-31T04:31:54;100763.78;;;15.73;100.00
73981;BME280;62348;51.412;5.436;2023-07-31T04:34:19;100763.47;;;15.75;100.00
73981;BME280;62348;51.412;5.436;2023-07-31T04:36:45;100761.56;;;15.75;100.00
73981;BME280;62348;51.412;5.436;2023-07-31T04:39:10;100755.00;;;15.76;100.00
73981;BME280;62348;51.412;5.436;2023-07-31T04:41:35;100760.47;;;15.76;100.00
73981;BME280;62348;51.412;5.436;2023-07-31T04:44:01;100746.84;;;15.76;100.00
73981;BME280;62348;51.412;5.436;2023-07-31T04:46:26;100746.00;;;15.76;100.00
73981;BME280;62348;51.412;5.436;2023-07-31T04:48:52;100745.72;;;15.77;100.00
73981;BME280;62348;51.412;5.436;2023-07-31T04:51:17;100748.16;;;15.79;100.00
73981;BME280;62348;51.412;5.436;2023-07-31T04:53:42;100739.97;;;15.79;100.00
73981;BME280;62348;51.412;5.436;2023-07-31T04:56:08;100746.72;;;15.81;100.00
73981;BME280;62348;51.412;5.436;2023-07-31T04:58:33;100741.28;;;15.81;100.00
73981;BME280;62348;51.412;5.436;2023-07-31T05:00:59;100740.47;;;15.81;100.00
73981;BME280;62348;51.412;5.436;2023-07-31T05:03:24;100735.53;;;15.83;100.00
73981;BME280;62348;51.412;5.436;2023-07-31T05:05:50;100739.34;;;15.82;100.00
73981;BME280;62348;51.412;5.436;2023-07-31T05:08:16;100742.06;;;15.82;100.00
73981;BME280;62348;51.412;5.436;2023-07-31T05:10:43;100726.56;;;15.83;100.00
73981;BME280;62348;51.412;5.436;2023-07-31T05:13:08;100732.00;;;15.83;100.00
73981;BME280;62348;51.412;5.436;2023-07-31T05:15:33;100729.28;;;15.83;100.00
73981;BME280;62348;51.412;5.436;2023-07-31T05:17:59;100721.09;;;15.83;100.00
73981;BME280;62348;51.412;5.436;2023-07-31T05:20:24;100718.66;;;15.81;100.00
73981;BME280;62348;51.412;5.436;2023-07-31T05:22:50;100726.84;;;15.81;100.00
73981;BME280;62348;51.412;5.436;2023-07-31T05:25:16;100724.13;;;15.81;100.00
73981;BME280;62348;51.412;5.436;2023-07-31T05:27:41;100720.59;;;15.80;100.00
73981;BME280;62348;51.412;5.436;2023-07-31T05:30:07;100720.59;;;15.80;100.00
73981;BME280;62348;51.412;5.436;2023-07-31T05:32:33;100723.31;;;15.80;100.00
73981;BME280;62348;51.412;5.436;2023-07-31T05:34:58;100726.84;;;15.81;100.00
73981;BME280;62348;51.412;5.436;2023-07-31T05:37:23;100720.59;;;15.80;100.00
73981;BME280;62348;51.412;5.436;2023-07-31T05:39:49;100723.31;;;15.80;100.00
73981;BME280;62348;51.412;5.436;2023-07-31T05:42:14;100708.06;;;15.79;100.00
73981;BME280;62348;51.412;5.436;2023-07-31T05:44:40;100712.09;;;15.82;100.00
73981;BME280;62348;51.412;5.436;2023-07-31T05:47:05;100717.03;;;15.80;100.00
73981;BME280;62348;51.412;5.436;2023-07-31T05:49:31;100720.09;;;15.78;100.00
73981;BME280;62348;51.412;5.436;2023-07-31T05:51:56;100709.97;;;15.79;100.00
73981;BME280;62348;51.412;5.436;2023-07-31T05:54:22;100713.50;;;15.79;100.00
73981;BME280;62348;51.412;5.436;2023-07-31T05:56:47;100709.97;;;15.79;100.00
73981;BME280;62348;51.412;5.436;2023-07-31T05:59:13;100703.72;;;15.78;100.00
73981;BME280;62348;51.412;5.436;2023-07-31T06:01:39;100703.72;;;15.78;100.00
73981;BME280;62348;51.412;5.436;2023-07-31T06:04:04;100704.31;;;15.75;100.00
73981;BME280;62348;51.412;5.436;2023-07-31T06:06:30;100689.59;;;15.76;100.00
73981;BME280;62348;51.412;5.436;2023-07-31T06:08:55;100696.94;;;15.76;100.00
73981;BME280;62348;51.412;5.436;2023-07-31T06:11:21;100700.50;;;15.76;100.00
73981;BME280;62348;51.412;5.436;2023-07-31T06:13:46;100686.31;;;15.74;100.00
73981;BME280;62348;51.412;5.436;2023-07-31T06:16:13;100693.72;;;15.74;100.00
73981;BME280;62348;51.412;5.436;2023-07-31T06:18:39;100698.34;;;15.73;100.00
73981;BME280;62348;51.412;5.436;2023-07-31T06:21:05;100683.38;;;15.71;100.00
73981;BME280;62348;51.412;5.436;2023-07-31T06:23:30;100680.34;;;15.72;100.00
73981;BME280;62348;51.412;5.436;2023-07-31T06:25:56;100674.69;;;15.69;100.00
73981;BME280;62348;51.412;5.436;2023-07-31T06:28:27;100678.22;;;15.69;100.00
73981;BME280;62348;51.412;5.436;2023-07-31T06:30:54;100680.97;;;15.69;100.00
73981;BME280;62348;51.412;5.436;2023-07-31T06:33:19;100678.22;;;15.69;100.00
73981;BME280;62348;51.412;5.436;2023-07-31T06:35:44;100674.38;;;15.70;100.00
73981;BME280;62348;51.412;5.436;2023-07-31T06:38:10;100678.75;;;15.71;100.00
73981;BME280;62348;51.412;5.436;2023-07-31T06:40:36;100668.94;;;15.70;100.00
73981;BME280;62348;51.412;5.436;2023-07-31T06:43:01;100673.00;;;15.73;100.00
73981;BME280;62348;51.412;5.436;2023-07-31T06:45:35;100673.53;;;15.75;100.00
73981;BME280;62348;51.412;5.436;2023-07-31T06:48:01;100663.13;;;15.77;100.00
73981;BME280;62348;51.412;5.436;2023-07-31T06:50:31;100672.13;;;15.77;100.00
73981;BME280;62348;51.412;5.436;2023-07-31T06:52:56;100663.44;;;15.75;100.00
73981;BME280;62348;51.412;5.436;2023-07-31T06:55:22;100664.72;;;15.78;100.00
73981;BME280;62348;51.412;5.436;2023-07-31T06:57:49;100660.41;;;15.77;100.00
73981;BME280;62348;51.412;5.436;2023-07-31T07:00:16;100659.59;;;15.76;100.00
73981;BME280;62348;51.412;5.436;2023-07-31T07:02:41;100667.78;;;15.76;100.00
73981;BME280;62348;51.412;5.436;2023-07-31T07:05:07;100662.34;;;15.76;100.00
73981;BME280;62348;51.412;5.436;2023-07-31T07:07:33;100659.59;;;15.76;100.00
73981;BME280;62348;51.412;5.436;2023-07-31T07:09:59;100654.66;;;15.78;100.00
73981;BME280;62348;51.412;5.436;2023-07-31T07:12:25;100652.94;;;15.83;100.00
73981;BME280;62348;51.412;5.436;2023-07-31T07:14:51;100658.91;;;15.85;100.00
73981;BME280;62348;51.412;5.436;2023-07-31T07:17:18;100651.03;;;15.83;100.00
73981;BME280;62348;51.412;5.436;2023-07-31T07:19:44;100641.41;;;15.86;100.00
73981;BME280;62348;51.412;5.436;2023-07-31T07:22:11;100639.03;;;15.84;100.00
73981;BME280;62348;51.412;5.436;2023-07-31T07:24:36;100643.66;;;15.84;100.00
73981;BME280;62348;51.412;5.436;2023-07-31T07:27:02;100634.66;;;15.83;100.00
73981;BME280;62348;51.412;5.436;2023-07-31T07:29:27;100631.03;;;15.88;100.00
73981;BME280;62348;51.412;5.436;2023-07-31T07:31:53;100635.69;;;15.87;100.00
73981;BME280;62348;51.412;5.436;2023-07-31T07:34:18;100640.84;;;15.89;100.00
73981;BME280;62348;51.412;5.436;2023-07-31T07:36:43;100637.81;;;15.90;100.00
73981;BME280;62348;51.412;5.436;2023-07-31T07:39:10;100646.78;;;15.91;100.00
73981;BME280;62348;51.412;5.436;2023-07-31T07:41:36;100646.78;;;15.91;100.00
73981;BME280;62348;51.412;5.436;2023-07-31T07:44:01;100641.63;;;15.89;100.00
73981;BME280;62348;51.412;5.436;2023-07-31T07:46:27;100650.31;;;15.91;100.00
73981;BME280;62348;51.412;5.436;2023-07-31T07:48:52;100645.69;;;15.92;100.00
73981;BME280;62348;51.412;5.436;2023-07-31T07:51:17;100646.00;;;15.90;100.00
73981;BME280;62348;51.412;5.436;2023-07-31T07:53:43;100648.72;;;15.90;100.00
73981;BME280;62348;51.412;5.436;2023-07-31T07:56:08;100644.66;;;15.88;100.00
73981;BME280;62348;51.412;5.436;2023-07-31T07:58:34;100643.84;;;15.87;100.00
73981;BME280;62348;51.412;5.436;2023-07-31T08:00:59;100643.56;;;15.89;100.00
73981;BME280;62348;51.412;5.436;2023-07-31T08:03:24;100642.47;;;15.90;100.00
73981;BME280;62348;51.412;5.436;2023-07-31T08:05:50;100637.00;;;15.90;100.00
73981;BME280;62348;51.412;5.436;2023-07-31T08:08:16;100644.34;;;15.89;100.00
73981;BME280;62348;51.412;5.436;2023-07-31T08:10:42;100642.47;;;15.90;100.00
73981;BME280;62348;51.412;5.436;2023-07-31T08:13:10;100637.00;;;15.90;100.00
73981;BME280;62348;51.412;5.436;2023-07-31T08:15:35;100641.34;;;15.91;100.00
73981;BME280;62348;51.412;5.436;2023-07-31T08:18:01;100631.44;;;15.95;100.00
73981;BME280;62348;51.412;5.436;2023-07-31T08:20:26;100636.91;;;15.95;100.00
73981;BME280;62348;51.412;5.436;2023-07-31T08:22:52;100640.13;;;15.97;100.00
73981;BME280;62348;51.412;5.436;2023-07-31T08:25:18;100629.44;;;16.00;100.00
73981;BME280;62348;51.412;5.436;2023-07-31T08:27:43;100635.16;;;15.99;100.00
73981;BME280;62348;51.412;5.436;2023-07-31T08:30:10;100633.28;;;15.99;100.00
73981;BME280;62348;51.412;5.436;2023-07-31T08:32:36;100637.59;;;16.00;100.00
73981;BME280;62348;51.412;5.436;2023-07-31T08:35:01;100629.44;;;16.00;100.00
73981;BME280;62348;51.412;5.436;2023-07-31T08:37:27;100633.28;;;15.99;100.00
73981;BME280;62348;51.412;5.436;2023-07-31T08:39:53;100632.78;;;15.97;100.00
73981;BME280;62348;51.412;5.436;2023-07-31T08:42:20;100627.00;;;15.99;100.00
73981;BME280;62348;51.412;5.436;2023-07-31T08:44:46;100636.31;;;15.98;100.00
73981;BME280;62348;51.412;5.436;2023-07-31T08:47:12;100633.56;;;15.98;100.00
73981;BME280;62348;51.412;5.436;2023-07-31T08:49:38;100629.44;;;16.00;100.00
73981;BME280;62348;51.412;5.436;2023-07-31T08:52:03;100633.47;;;16.03;100.00
73981;BME280;62348;51.412;5.436;2023-07-31T08:54:30;100634.28;;;16.04;100.00
73981;BME280;62348;51.412;5.436;2023-07-31T08:56:57;100636.72;;;16.05;100.00
73981;BME280;62348;51.412;5.436;2023-07-31T08:59:26;100634.00;;;16.05;100.00
73981;BME280;62348;51.412;5.436;2023-07-31T09:01:55;100629.03;;;16.07;100.00
73981;BME280;62348;51.412;5.436;2023-07-31T09:04:22;100628.41;;;16.10;100.00
73981;BME280;62348;51.412;5.436;2023-07-31T09:06:49;100617.72;;;16.14;100.00
73981;BME280;62348;51.412;5.436;2023-07-31T09:09:16;100620.94;;;16.16;100.00
73981;BME280;62348;51.412;5.436;2023-07-31T09:11:41;100625.78;;;16.19;100.00
73981;BME280;62348;51.412;5.436;2023-07-31T09:14:08;100621.94;;;16.20;100.00
73981;BME280;62348;51.412;5.436;2023-07-31T09:16:34;100618.31;;;16.25;100.00
73981;BME280;62348;51.412;5.436;2023-07-31T09:19:00;100615.59;;;16.25;100.00
73981;BME280;62348;51.412;5.436;2023-07-31T09:21:30;100610.94;;;16.25;100.00
73981;BME280;62348;51.412;5.436;2023-07-31T09:23:55;100615.78;;;16.28;100.00
73981;BME280;62348;51.412;5.436;2023-07-31T09:26:35;100613.25;;;16.32;100.00
73981;BME280;62348;51.412;5.436;2023-07-31T09:29:04;100609.09;;;16.34;100.00
73981;BME280;62348;51.412;5.436;2023-07-31T09:34:04;100600.03;;;16.39;100.00
73981;BME280;62348;51.412;5.436;2023-07-31T09:36:30;100601.53;;;16.45;100.00
73981;BME280;62348;51.412;5.436;2023-07-31T09:39:02;100602.22;;;16.51;100.00
73981;BME280;62348;51.412;5.436;2023-07-31T09:41:29;100596.97;;;16.54;100.00
73981;BME280;62348;51.412;5.436;2023-07-31T09:43:55;100598.56;;;16.55;100.00
73981;BME280;62348;51.412;5.436;2023-07-31T09:46:21;100608.69;;;16.55;100.00
73981;BME280;62348;51.412;5.436;2023-07-31T09:48:47;100604.50;;;16.57;100.00
73981;BME280;62348;51.412;5.436;2023-07-31T09:51:12;100594.44;;;16.58;100.00
73981;BME280;62348;51.412;5.436;2023-07-31T09:53:37;100600.06;;;16.62;100.00
73981;BME280;62348;51.412;5.436;2023-07-31T09:56:03;100589.63;;;16.64;100.00
73981;BME280;62348;51.412;5.436;2023-07-31T09:58:34;100597.03;;;16.63;100.00
73981;BME280;62348;51.412;5.436;2023-07-31T10:01:01;100600.56;;;16.64;100.00
73981;BME280;62348;51.412;5.436;2023-07-31T10:03:27;100592.88;;;16.66;100.00
73981;BME280;62348;51.412;5.436;2023-07-31T10:05:56;100594.19;;;16.68;100.00
73981;BME280;62348;51.412;5.436;2023-07-31T10:08:27;100587.78;;;16.73;100.00
73981;BME280;62348;51.412;5.436;2023-07-31T10:10:58;100593.44;;;16.76;100.00
73981;BME280;62348;51.412;5.436;2023-07-31T10:13:24;100585.75;;;16.78;100.00
73981;BME280;62348;51.412;5.436;2023-07-31T10:15:50;100593.94;;;16.78;100.00
73981;BME280;62348;51.412;5.436;2023-07-31T10:18:18;100584.16;;;16.77;100.00
73981;BME280;62348;51.412;5.436;2023-07-31T10:20:44;100579.78;;;16.76;100.00
73981;BME280;62348;51.412;5.436;2023-07-31T10:23:10;100584.94;;;16.78;100.00
73981;BME280;62348;51.412;5.436;2023-07-31T10:25:37;100579.19;;;16.79;100.00
73981;BME280;62348;51.412;5.436;2023-07-31T10:28:03;100583.50;;;16.81;100.00
73981;BME280;62348;51.412;5.436;2023-07-31T10:30:33;100577.56;;;16.78;100.00
73981;BME280;62348;51.412;5.436;2023-07-31T10:33:00;100584.56;;;16.85;100.00
73981;BME280;62348;51.412;5.436;2023-07-31T10:35:28;100582.34;;;16.87;100.00
73981;BME280;62348;51.412;5.436;2023-07-31T10:37:53;100595.66;;;16.88;100.00
73981;BME280;62348;51.412;5.436;2023-07-31T10:40:23;100588.47;;;16.92;100.00
73981;BME280;62348;51.412;5.436;2023-07-31T10:42:54;100593.59;;;16.94;100.00
73981;BME280;62348;51.412;5.436;2023-07-31T10:45:31;100585.31;;;16.99;100.00
73981;BME280;62348;51.412;5.436;2023-07-31T10:48:07;100586.09;;;17.00;100.00
73981;BME280;62348;51.412;5.436;2023-07-31T10:50:38;100589.22;;;17.07;100.00
73981;BME280;62348;51.412;5.436;2023-07-31T10:53:04;100592.31;;;17.14;100.00
73981;BME280;62348;51.412;5.436;2023-07-31T10:55:42;100591.25;;;17.24;100.00
73981;BME280;62348;51.412;5.436;2023-07-31T10:58:13;100579.41;;;17.28;100.00
73981;BME280;62348;51.412;5.436;2023-07-31T11:00:43;100584.41;;;17.35;100.00
73981;BME280;62348;51.412;5.436;2023-07-31T11:03:17;100581.38;;;17.36;100.00
73981;BME280;62348;51.412;5.436;2023-07-31T11:08:24;100576.88;;;17.41;100.00
73981;BME280;62348;51.412;5.436;2023-07-31T11:11:14;100577.69;;;17.41;100.00
73981;BME280;62348;51.412;5.436;2023-07-31T11:13:51;100578.53;;;17.42;100.00
73981;BME280;62348;51.412;5.436;2023-07-31T11:16:21;100579.63;;;17.41;100.00
73981;BME280;62348;51.412;5.436;2023-07-31T11:18:48;100582.84;;;17.43;100.00
73981;BME280;62348;51.412;5.436;2023-07-31T11:21:22;100575.94;;;17.45;100.00
73981;BME280;62348;51.412;5.436;2023-07-31T11:23:52;100568.88;;;17.44;100.00
73981;BME280;62348;51.412;5.436;2023-07-31T11:26:18;100575.94;;;17.45;100.00
73981;BME280;62348;51.412;5.436;2023-07-31T11:28:47;100569.25;;;17.51;100.00
73981;BME280;62348;51.412;5.436;2023-07-31T11:31:13;100569.91;;;17.57;100.00
73981;BME280;62348;51.412;5.436;2023-07-31T11:33:38;100570.56;;;17.63;100.00
73981;BME280;62348;51.412;5.436;2023-07-31T11:36:04;100566.03;;;17.58;100.00
73981;BME280;62348;51.412;5.436;2023-07-31T11:38:30;100558.97;;;17.57;100.00
73981;BME280;62348;51.412;5.436;2023-07-31T11:41:03;100567.47;;;17.55;100.00
73981;BME280;62348;51.412;5.436;2023-07-31T11:43:30;100565.38;;;17.52;100.00
73981;BME280;62348;51.412;5.436;2023-07-31T11:45:58;100566.81;;;17.50;100.00
73981;BME280;62348;51.412;5.436;2023-07-31T11:48:28;100567.13;;;17.48;100.00
73981;BME280;62348;51.412;5.436;2023-07-31T11:51:09;100559.53;;;17.45;100.00
73981;BME280;62348;51.412;5.436;2023-07-31T11:53:45;100552.78;;;17.43;100.00
73981;BME280;62348;51.412;5.436;2023-07-31T11:56:20;100553.91;;;17.42;100.00
73981;BME280;62348;51.412;5.436;2023-07-31T11:58:49;100548.75;;;17.40;100.00
73981;BME280;62348;51.412;5.436;2023-07-31T12:01:16;100549.88;;;17.39;100.00
73981;BME280;62348;51.412;5.436;2023-07-31T12:03:42;100552.28;;;17.41;100.00
73981;BME280;62348;51.412;5.436;2023-07-31T12:06:08;100547.31;;;17.43;100.00
73981;BME280;62348;51.412;5.436;2023-07-31T12:08:33;100549.25;;;17.42;100.00
73981;BME280;62348;51.412;5.436;2023-07-31T12:11:07;100546.22;;;17.44;100.00
73981;BME280;62348;51.412;5.436;2023-07-31T12:13:34;100540.41;;;17.45;100.00
73981;BME280;62348;51.412;5.436;2023-07-31T12:16:01;100537.69;;;17.45;100.00
73981;BME280;62348;51.412;5.436;2023-07-31T12:18:33;100542.53;;;17.48;100.00
73981;BME280;62348;51.412;5.436;2023-07-31T12:21:00;100544.16;;;17.49;100.00
73981;BME280;62348;51.412;5.436;2023-07-31T12:23:27;100537.53;;;17.50;100.00
73981;BME280;62348;51.412;5.436;2023-07-31T12:26:11;100529.03;;;17.52;100.00
73981;BME280;62348;51.412;5.436;2023-07-31T12:28:40;100520.03;;;17.51;100.00
73981;BME280;62348;51.412;5.436;2023-07-31T12:31:08;100524.38;;;17.52;100.00
73981;BME280;62348;51.412;5.436;2023-07-31T12:33:35;100511.53;;;17.53;100.00
73981;BME280;62348;51.412;5.436;2023-07-31T12:36:02;100500.59;;;17.53;100.00
73981;BME280;62348;51.412;5.436;2023-07-31T12:38:28;100501.41;;;17.53;100.00
73981;BME280;62348;51.412;5.436;2023-07-31T12:40:54;100510.88;;;17.56;100.00
73981;BME280;62348;51.412;5.436;2023-07-31T12:43:19;100523.44;;;17.57;100.00
73981;BME280;62348;51.412;5.436;2023-07-31T12:45:44;100501.56;;;17.57;100.00
73981;BME280;62348;51.412;5.436;2023-07-31T12:48:10;100504.47;;;17.61;100.00